Time;durP1;ratioP1;P1;durP2;ratioP2;P2;SDS_P1;SDS_P2;PMS_P1;PMS_P2;Temp;Humidity;BMP_temperature;BMP_pressure;BME280_temperature;BME280_humidity;BME280_pressure;Samples;Min_cycle;Max_cycle;Signal;HPM_P1;HPM_P2
2022/10/13 00:00:47;;;;;;;31.65;4.85;;;;;;;;;;6331848;22;20019;-61
2022/10/13 00:03:15;;;;;;;33.33;4.32;;;;;;;;;;6333140;22;20058;-60
2022/10/13 00:05:46;;;;;;;30.58;4.35;;;;;;;;;;6332392;22;20033;-61
2022/10/13 00:08:21;;;;;;;35.55;5.10;;;;;;;;;;6332367;22;20101;-60
2022/10/13 00:10:49;;;;;;;30.52;4.68;;;;;;;;;;6331772;22;20021;-51
2022/10/13 00:13:23;;;;;;;25.02;4.88;;;;;;;;;;6331433;22;20015;-61
2022/10/13 00:15:50;;;;;;;24.70;4.57;;;;;;;;;;6331321;22;20023;-61
2022/10/13 00:18:24;;;;;;;24.52;4.35;;;;;;;;;;6331574;22;20809;-61
2022/10/13 00:20:51;;;;;;;24.45;4.57;;;;;;;;;;6331427;22;20106;-61
2022/10/13 00:23:19;;;;;;;25.30;4.88;;;;;;;;;;6330437;22;20025;-61
2022/10/13 00:26:08;;;;;;;33.95;4.65;;;;;;;;;;6330029;22;20498;-61
2022/10/13 00:28:42;;;;;;;22.58;4.38;;;;;;;;;;6329195;22;20130;-60
2022/10/13 00:31:19;;;;;;;24.15;4.13;;;;;;;;;;6331970;22;20061;-61
2022/10/13 00:33:46;;;;;;;31.83;4.68;;;;;;;;;;6330700;22;20027;-60
2022/10/13 00:36:13;;;;;;;25.88;5.13;;;;;;;;;;6331411;22;20027;-60
2022/10/13 00:38:48;;;;;;;24.67;4.20;;;;;;;;;;6329429;22;20064;-60
2022/10/13 00:41:15;;;;;;;28.05;5.28;;;;;;;;;;6332311;22;20015;-60
2022/10/13 00:44:00;;;;;;;30.42;4.38;;;;;;;;;;6332077;22;20367;-60
2022/10/13 00:46:35;;;;;;;28.90;4.05;;;;;;;;;;6330401;22;20023;-60
2022/10/13 00:49:13;;;;;;;36.08;4.65;;;;;;;;;;6331808;22;20257;-62
2022/10/13 00:51:48;;;;;;;32.53;4.85;;;;;;;;;;6330766;22;20121;-60
2022/10/13 00:54:17;;;;;;;21.38;4.80;;;;;;;;;;6332156;22;20374;-60
2022/10/13 00:56:45;;;;;;;25.67;4.70;;;;;;;;;;6331368;22;20019;-60
2022/10/13 00:59:22;;;;;;;32.88;5.10;;;;;;;;;;6330920;22;20585;-60
2022/10/13 01:01:56;;;;;;;23.73;4.80;;;;;;;;;;6331672;22;20094;-60
2022/10/13 01:04:32;;;;;;;27.35;5.65;;;;;;;;;;6331111;22;20480;-60
2022/10/13 01:06:59;;;;;;;32.08;5.35;;;;;;;;;;6331097;22;20536;-60
2022/10/13 01:09:34;;;;;;;23.20;5.18;;;;;;;;;;6333490;22;20527;-61
2022/10/13 01:12:14;;;;;;;32.38;5.85;;;;;;;;;;6334113;22;20105;-62
2022/10/13 01:14:54;;;;;;;26.05;5.28;;;;;;;;;;6333327;22;20058;-61
2022/10/13 01:17:43;;;;;;;39.83;5.47;;;;;;;;;;6333551;22;20558;-61
2022/10/13 01:20:31;;;;;;;31.42;6.20;;;;;;;;;;6334345;22;20106;-61
2022/10/13 01:23:26;;;;;;;35.05;6.32;;;;;;;;;;6332373;22;20087;-61
2022/10/13 01:26:30;;;;;;;23.17;5.30;;;;;;;;;;6331502;22;20218;-60
2022/10/13 01:29:43;;;;;;;33.55;5.32;;;;;;;;;;6242888;22;20082;-49
2022/10/13 01:32:23;;;;;;;35.10;6.93;;;;;;;;;;6333490;22;20741;-48
2022/10/13 01:35:03;;;;;;;46.35;7.10;;;;;;;;;;6332894;22;20436;-47
2022/10/13 01:37:43;;;;;;;30.48;6.47;;;;;;;;;;6332872;22;20019;-50
2022/10/13 01:40:23;;;;;;;34.35;5.97;;;;;;;;;;6333393;22;20106;-49
2022/10/13 01:43:01;;;;;;;39.85;7.30;;;;;;;;;;6332380;22;20025;-47
2022/10/13 01:45:38;;;;;;;36.00;6.38;;;;;;;;;;6333057;22;20019;-60
2022/10/13 01:48:05;;;;;;;39.67;7.38;;;;;;;;;;6305496;22;20029;-62
2022/10/13 01:50:34;;;;;;;35.90;6.43;;;;;;;;;;6333040;22;20018;-62
2022/10/13 01:53:08;;;;;;;29.52;6.65;;;;;;;;;;6333079;22;20019;-62
2022/10/13 01:55:49;;;;;;;28.77;7.68;;;;;;;;;;6333834;22;20029;-62
2022/10/13 01:58:16;;;;;;;29.50;6.43;;;;;;;;;;6332039;22;20023;-62
2022/10/13 02:00:57;;;;;;;37.25;7.65;;;;;;;;;;6333584;22;20025;-62
2022/10/13 02:03:34;;;;;;;32.97;6.65;;;;;;;;;;6332149;22;20097;-62
2022/10/13 02:06:46;;;;;;;31.58;6.15;;;;;;;;;;6331695;22;20080;-60
2022/10/13 02:09:14;;;;;;;34.47;6.60;;;;;;;;;;6333606;22;20019;-62
2022/10/13 02:11:59;;;;;;;41.63;7.18;;;;;;;;;;6333578;22;20508;-62
2022/10/13 02:14:30;;;;;;;40.35;7.38;;;;;;;;;;6332819;22;20021;-62
2022/10/13 02:17:14;;;;;;;27.63;7.07;;;;;;;;;;6334559;22;20102;-62
2022/10/13 02:19:48;;;;;;;32.30;6.38;;;;;;;;;;6331094;22;20023;-62
2022/10/13 02:22:25;;;;;;;28.23;5.95;;;;;;;;;;6333294;22;20025;-54
2022/10/13 02:24:59;;;;;;;31.23;6.32;;;;;;;;;;6333400;22;20018;-59
2022/10/13 02:27:40;;;;;;;40.42;6.70;;;;;;;;;;6329192;22;20503;-62
2022/10/13 02:30:22;;;;;;;37.03;6.95;;;;;;;;;;6332951;22;20026;-62
2022/10/13 02:32:56;;;;;;;31.38;6.80;;;;;;;;;;6332202;22;20027;-62
2022/10/13 02:35:31;;;;;;;44.35;6.72;;;;;;;;;;6332254;22;20029;-61
2022/10/13 02:38:05;;;;;;;31.02;5.97;;;;;;;;;;6333401;22;20014;-61
2022/10/13 02:40:32;;;;;;;29.40;6.25;;;;;;;;;;6332738;22;20029;-62
2022/10/13 02:43:06;;;;;;;30.92;7.20;;;;;;;;;;6333711;22;20019;-61
2022/10/13 02:45:33;;;;;;;29.95;7.55;;;;;;;;;;6332927;22;20028;-62
2022/10/13 02:48:01;;;;;;;34.40;7.28;;;;;;;;;;6332694;22;20018;-62
2022/10/13 02:50:34;;;;;;;25.38;6.72;;;;;;;;;;6306358;22;20037;-62
2022/10/13 02:53:10;;;;;;;33.45;7.50;;;;;;;;;;6333910;22;20034;-62
2022/10/13 02:55:47;;;;;;;29.15;6.63;;;;;;;;;;6333979;22;20094;-62
2022/10/13 02:58:14;;;;;;;35.13;7.43;;;;;;;;;;6332325;22;20023;-62
2022/10/13 03:00:41;;;;;;;36.97;7.65;;;;;;;;;;6333930;22;20102;-48
2022/10/13 03:03:16;;;;;;;29.13;7.22;;;;;;;;;;6332346;22;20019;-62
2022/10/13 03:05:43;;;;;;;29.50;7.25;;;;;;;;;;6332968;22;20106;-60
2022/10/13 03:08:10;;;;;;;;;;;;;;;;;;6334256;22;20138;-60
2022/10/13 03:10:44;;;;;;;43.53;7.00;;;;;;;;;;6332938;22;20116;-60
2022/10/13 03:13:11;;;;;;;33.72;6.93;;;;;;;;;;6331826;22;20023;-60
2022/10/13 03:15:46;;;;;;;30.15;7.60;;;;;;;;;;6332645;22;20033;-60
2022/10/13 03:18:14;;;;;;;43.83;7.32;;;;;;;;;;6332747;22;20018;-60
2022/10/13 03:20:41;;;;;;;36.08;8.75;;;;;;;;;;6330705;22;20023;-61
2022/10/13 03:23:14;;;;;;;31.63;8.25;;;;;;;;;;6331906;22;20094;-50
2022/10/13 03:25:48;;;;;;;42.03;8.13;;;;;;;;;;6329982;22;20107;-48
2022/10/13 03:28:29;;;;;;;39.85;8.40;;;;;;;;;;6333029;22;20021;-50
2022/10/13 03:31:04;;;;;;;41.75;7.55;;;;;;;;;;6332462;22;20023;-47
2022/10/13 03:33:39;;;;;;;43.42;9.00;;;;;;;;;;6331432;22;20383;-48
2022/10/13 03:36:13;;;;;;;34.70;9.43;;;;;;;;;;6304370;22;20365;-51
2022/10/13 03:38:47;;;;;;;36.40;8.43;;;;;;;;;;6332240;22;20106;-51
2022/10/13 03:41:16;;;;;;;40.05;9.55;;;;;;;;;;6333546;22;20106;-59
2022/10/13 03:43:44;;;;;;;47.72;9.88;;;;;;;;;;6331592;22;20019;-60
2022/10/13 03:46:18;;;;;;;40.65;8.73;;;;;;;;;;6330640;22;20033;-60
2022/10/13 03:48:51;;;;;;;45.00;9.02;;;;;;;;;;6332192;22;20015;-59
2022/10/13 03:51:25;;;;;;;27.38;8.10;;;;;;;;;;6332897;22;20019;-60
2022/10/13 03:53:53;;;;;;;35.65;8.30;;;;;;;;;;6330945;22;20057;-60
2022/10/13 03:56:24;;;;;;;34.72;10.60;;;;;;;;;;6332004;22;20019;-60
2022/10/13 03:58:59;;;;;;;44.60;8.48;;;;;;;;;;6333477;22;20045;-62
2022/10/13 04:01:28;;;;;;;48.42;8.27;;;;;;;;;;6331731;22;20263;-48
2022/10/13 04:04:02;;;;;;;40.45;9.48;;;;;;;;;;6331754;22;20562;-51
2022/10/13 04:06:30;;;;;;;36.20;8.93;;;;;;;;;;6333461;22;20023;-48
2022/10/13 04:08:57;;;;;;;40.97;8.70;;;;;;;;;;6334003;22;20022;-49
2022/10/13 04:11:31;;;;;;;45.53;8.88;;;;;;;;;;6332360;22;20026;-49
2022/10/13 04:13:58;;;;;;;29.88;7.75;;;;;;;;;;6332466;22;20033;-50
2022/10/13 04:16:27;;;;;;;33.70;7.93;;;;;;;;;;6332792;22;20106;-52
2022/10/13 04:19:04;;;;;;;47.10;10.00;;;;;;;;;;6332169;22;20046;-60
2022/10/13 04:21:32;;;;;;;47.67;9.23;;;;;;;;;;6332105;22;20085;-61
2022/10/13 04:24:00;;;;;;;38.70;9.13;;;;;;;;;;6332652;22;20029;-62
2022/10/13 04:26:45;;;;;;;48.75;9.00;;;;;;;;;;6328052;22;20031;-62
2022/10/13 04:29:13;;;;;;;27.42;7.65;;;;;;;;;;6332589;22;20021;-62
2022/10/13 04:31:46;;;;;;;36.17;8.38;;;;;;;;;;6331363;22;20018;-61
2022/10/13 04:34:13;;;;;;;46.90;9.40;;;;;;;;;;6330743;22;20069;-62
2022/10/13 04:36:40;;;;;;;35.50;8.95;;;;;;;;;;6331010;22;20018;-47
2022/10/13 04:39:14;;;;;;;47.53;8.75;;;;;;;;;;6332181;22;20025;-62
2022/10/13 04:41:41;;;;;;;37.08;8.63;;;;;;;;;;6331343;22;20098;-60
2022/10/13 04:44:08;;;;;;;32.58;9.60;;;;;;;;;;6331627;22;20018;-60
2022/10/13 04:46:42;;;;;;;38.92;9.40;;;;;;;;;;6328858;22;20023;-60
2022/10/13 04:49:10;;;;;;;33.67;8.80;;;;;;;;;;6331832;22;20015;-60
2022/10/13 04:51:37;;;;;;;25.20;7.88;;;;;;;;;;6330029;22;20037;-60
2022/10/13 04:54:10;;;;;;;39.90;8.73;;;;;;;;;;6331436;22;20487;-60
2022/10/13 04:56:37;;;;;;;32.60;8.95;;;;;;;;;;6331798;22;20363;-60
2022/10/13 04:59:11;;;;;;;39.45;9.05;;;;;;;;;;6332020;22;20102;-49
2022/10/13 05:01:39;;;;;;;34.30;7.53;;;;;;;;;;6331364;22;20102;-49
2022/10/13 05:04:06;;;;;;;;;;;;;;;;;;6305088;22;20037;-48
2022/10/13 05:06:41;;;;;;;41.00;8.02;;;;;;;;;;6332973;22;19914;-50
2022/10/13 05:09:28;;;;;;;43.55;9.20;;;;;;;;;;6332921;22;20460;-48
2022/10/13 05:12:03;;;;;;;40.17;9.23;;;;;;;;;;6331464;22;20468;-51
2022/10/13 05:14:32;;;;;;;41.60;9.27;;;;;;;;;;6331840;22;20022;-62
2022/10/13 05:16:59;;;;;;;41.13;9.18;;;;;;;;;;6332417;22;20090;-48
2022/10/13 05:19:32;;;;;;;38.30;8.95;;;;;;;;;;6332775;22;20018;-61
2022/10/13 05:21:59;;;;;;;38.40;8.75;;;;;;;;;;6332094;22;20097;-61
2022/10/13 05:24:36;;;;;;;45.72;9.18;;;;;;;;;;6333340;22;20090;-60
2022/10/13 05:27:08;;;;;;;43.80;8.90;;;;;;;;;;6330868;22;20033;-60
2022/10/13 05:29:49;;;;;;;33.95;8.73;;;;;;;;;;6331371;22;20094;-60
2022/10/13 05:32:16;;;;;;;34.85;7.85;;;;;;;;;;6331417;22;20057;-57
2022/10/13 05:34:50;;;;;;;31.00;7.60;;;;;;;;;;6330426;22;20019;-60
2022/10/13 05:37:18;;;;;;;34.30;7.93;;;;;;;;;;6332190;22;20122;-52
2022/10/13 05:39:45;;;;;;;35.83;8.60;;;;;;;;;;6331856;22;20015;-49
2022/10/13 05:42:18;;;;;;;28.35;7.53;;;;;;;;;;6331737;22;20094;-50
2022/10/13 05:44:46;;;;;;;45.75;9.00;;;;;;;;;;6331016;22;20030;-53
2022/10/13 05:47:25;;;;;;;34.55;7.82;;;;;;;;;;6332492;22;20022;-51
2022/10/13 05:49:52;;;;;;;41.05;8.90;;;;;;;;;;6330989;22;20098;-52
2022/10/13 05:52:20;;;;;;;41.08;8.18;;;;;;;;;;6332628;22;20019;-60
2022/10/13 05:54:56;;;;;;;30.92;7.28;;;;;;;;;;6332594;22;20093;-50
2022/10/13 05:57:28;;;;;;;35.13;7.97;;;;;;;;;;6334280;22;20153;-61
2022/10/13 06:00:04;;;;;;;31.05;7.47;;;;;;;;;;6334743;22;20025;-62
2022/10/13 06:02:33;;;;;;;35.35;7.72;;;;;;;;;;6330334;22;20019;-62
2022/10/13 06:05:02;;;;;;;36.70;7.93;;;;;;;;;;6333839;22;20021;-61
2022/10/13 06:07:36;;;;;;;32.28;7.78;;;;;;;;;;6334146;22;20454;-62
2022/10/13 06:10:04;;;;;;;32.67;6.80;;;;;;;;;;6333070;22;20015;-62
2022/10/13 06:12:38;;;;;;;40.15;8.70;;;;;;;;;;6332673;22;20033;-61
2022/10/13 06:15:05;;;;;;;31.88;7.65;;;;;;;;;;6333906;22;20015;-62
2022/10/13 06:17:35;;;;;;;29.08;7.43;;;;;;;;;;6332442;22;20045;-62
2022/10/13 06:20:09;;;;;;;28.75;7.07;;;;;;;;;;6332877;22;20027;-62
2022/10/13 06:22:36;;;;;;;;;;;;;;;;;;6333763;22;20022;-61
2022/10/13 06:25:04;;;;;;;29.35;6.25;;;;;;;;;;6333417;22;19932;-62
2022/10/13 06:27:53;;;;;;;30.20;6.38;;;;;;;;;;6329137;22;20064;-61
2022/10/13 06:30:20;;;;;;;31.30;7.45;;;;;;;;;;6332371;22;20095;-49
2022/10/13 06:32:55;;;;;;;38.10;8.20;;;;;;;;;;6333797;22;20061;-50
2022/10/13 06:35:22;;;;;;;33.55;7.43;;;;;;;;;;6334258;22;20102;-60
2022/10/13 06:37:51;;;;;;;;;;;;;;;;;;6334127;22;20019;-60
2022/10/13 06:40:25;;;;;;;29.33;7.43;;;;;;;;;;6333838;22;19950;-60
2022/10/13 06:42:52;;;;;;;34.45;7.53;;;;;;;;;;6332972;22;20126;-60
2022/10/13 06:45:26;;;;;;;30.48;6.82;;;;;;;;;;6334485;22;20491;-60
2022/10/13 06:47:54;;;;;;;22.23;6.22;;;;;;;;;;6332796;22;20388;-60
2022/10/13 06:50:21;;;;;;;28.50;6.65;;;;;;;;;;6334017;22;20527;-61
2022/10/13 06:52:55;;;;;;;36.63;7.53;;;;;;;;;;6334078;22;20025;-62
2022/10/13 06:55:22;;;;;;;34.80;7.57;;;;;;;;;;6333655;22;20102;-61
2022/10/13 06:57:56;;;;;;;35.03;7.78;;;;;;;;;;6333426;22;20122;-61
2022/10/13 07:00:24;;;;;;;36.55;7.90;;;;;;;;;;6333610;22;20097;-62
2022/10/13 07:02:51;;;;;;;31.38;7.75;;;;;;;;;;6333027;22;20334;-62
2022/10/13 07:05:25;;;;;;;24.73;6.30;;;;;;;;;;6333210;22;20026;-62
2022/10/13 07:07:53;;;;;;;30.52;8.02;;;;;;;;;;6334492;22;20102;-62
2022/10/13 07:10:27;;;;;;;47.08;14.52;;;;;;;;;;6331889;22;20033;-60
2022/10/13 07:12:54;;;;;;;30.95;7.00;;;;;;;;;;6333406;22;20018;-60
2022/10/13 07:15:23;;;;;;;34.58;9.10;;;;;;;;;;6332134;22;20054;-60
2022/10/13 07:17:58;;;;;;;23.50;6.43;;;;;;;;;;6332866;22;20113;-60
2022/10/13 07:20:25;;;;;;;19.65;6.28;;;;;;;;;;6332458;22;20349;-60
2022/10/13 07:22:53;;;;;;;31.33;6.55;;;;;;;;;;6333399;22;20018;-60
2022/10/13 07:25:26;;;;;;;27.75;6.30;;;;;;;;;;6332093;22;20029;-60
2022/10/13 07:28:00;;;;;;;32.38;6.32;;;;;;;;;;6331263;22;20102;-62
2022/10/13 07:30:33;;;;;;;28.77;6.47;;;;;;;;;;6331152;22;20355;-50
2022/10/13 07:33:01;;;;;;;26.27;6.35;;;;;;;;;;6332666;22;20037;-60
2022/10/13 07:35:28;;;;;;;27.83;6.00;;;;;;;;;;6333009;22;20077;-60
2022/10/13 07:38:02;;;;;;;27.98;6.45;;;;;;;;;;6332724;22;20093;-60
2022/10/13 07:40:30;;;;;;;26.55;5.82;;;;;;;;;;6332562;22;20058;-60
2022/10/13 07:42:57;;;;;;;27.45;6.03;;;;;;;;;;6333015;22;20053;-59
2022/10/13 07:45:31;;;;;;;36.08;6.13;;;;;;;;;;6333643;22;20034;-60
2022/10/13 07:47:58;;;;;;;29.88;6.20;;;;;;;;;;6333135;22;20019;-60
2022/10/13 07:50:25;;;;;;;27.70;5.60;;;;;;;;;;6333768;22;20056;-62
2022/10/13 07:52:58;;;;;;;25.88;5.63;;;;;;;;;;6333721;22;20029;-62
2022/10/13 07:55:26;;;;;;;42.80;6.43;;;;;;;;;;6332960;22;20018;-62
2022/10/13 07:58:03;;;;;;;25.17;5.97;;;;;;;;;;6333712;22;20018;-62
2022/10/13 08:00:30;;;;;;;31.70;5.75;;;;;;;;;;6332234;22;20093;-61
2022/10/13 08:02:57;;;;;;;22.38;5.65;;;;;;;;;;6331664;22;20045;-61
2022/10/13 08:05:31;;;;;;;26.30;5.95;;;;;;;;;;6331580;22;20097;-60
2022/10/13 08:07:58;;;;;;;22.30;5.50;;;;;;;;;;6330890;22;20030;-61
2022/10/13 08:10:28;;;;;;;27.90;5.57;;;;;;;;;;6333260;22;20049;-60
2022/10/13 08:13:01;;;;;;;23.02;5.40;;;;;;;;;;6332228;22;20093;-60
2022/10/13 08:15:28;;;;;;;33.72;6.10;;;;;;;;;;6331499;22;20023;-60
2022/10/13 08:18:02;;;;;;;25.17;5.75;;;;;;;;;;6332737;22;20041;-61
2022/10/13 08:20:29;;;;;;;24.02;4.93;;;;;;;;;;6331922;22;20019;-60
2022/10/13 08:23:09;;;;;;;27.15;5.60;;;;;;;;;;6331348;22;20061;-60
2022/10/13 08:25:37;;;;;;;30.42;5.20;;;;;;;;;;6331649;22;20062;-58
2022/10/13 08:28:21;;;;;;;22.02;4.82;;;;;;;;;;6330733;22;20102;-60
2022/10/13 08:30:52;;;;;;;22.48;4.63;;;;;;;;;;6331919;22;20022;-60
2022/10/13 08:33:26;;;;;;;21.70;5.25;;;;;;;;;;6333273;22;20084;-60
2022/10/13 08:35:54;;;;;;;24.25;4.75;;;;;;;;;;6332855;22;20025;-60
2022/10/13 08:38:21;;;;;;;26.27;5.00;;;;;;;;;;6329712;22;20622;-60
2022/10/13 08:40:54;;;;;;;26.38;5.95;;;;;;;;;;6331993;22;20511;-60
2022/10/13 08:43:22;;;;;;;32.70;5.20;;;;;;;;;;6332562;22;20098;-60
2022/10/13 08:45:59;;;;;;;31.85;4.95;;;;;;;;;;6332267;22;20023;-60
2022/10/13 08:48:35;;;;;;;19.95;4.40;;;;;;;;;;6332251;22;20177;-52
2022/10/13 08:51:30;;;;;;;22.90;4.63;;;;;;;;;;6332178;22;20332;-53
2022/10/13 08:53:58;;;;;;;23.52;5.60;;;;;;;;;;6330000;22;20023;-53
2022/10/13 08:56:33;;;;;;;20.65;4.88;;;;;;;;;;6331553;22;20023;-52
2022/10/13 08:59:02;;;;;;;23.70;4.32;;;;;;;;;;6331965;22;20556;-51
2022/10/13 09:01:34;;;;;;;25.60;4.93;;;;;;;;;;6331783;22;20057;-52
2022/10/13 09:04:09;;;;;;;21.10;5.53;;;;;;;;;;6331738;22;20031;-60
2022/10/13 09:06:39;;;;;;;26.92;4.82;;;;;;;;;;6331096;22;20068;-61
2022/10/13 09:09:14;;;;;;;23.58;5.72;;;;;;;;;;6331482;22;20019;-60
2022/10/13 09:11:49;;;;;;;19.08;4.30;;;;;;;;;;6331045;22;20079;-60
2022/10/13 09:14:30;;;;;;;15.75;4.88;;;;;;;;;;6331075;22;20033;-61
2022/10/13 09:17:13;;;;;;;22.05;4.32;;;;;;;;;;6331930;22;20294;-61
2022/10/13 09:19:41;;;;;;;18.10;4.50;;;;;;;;;;6331928;22;20058;-61
2022/10/13 09:22:26;;;;;;;16.42;4.80;;;;;;;;;;6332480;22;20018;-50
2022/10/13 09:25:08;;;;;;;16.40;4.82;;;;;;;;;;6332587;22;20110;-60
2022/10/13 09:27:52;;;;;;;22.42;4.65;;;;;;;;;;6331295;22;20033;-60
2022/10/13 09:30:25;;;;;;;20.85;4.22;;;;;;;;;;6332493;22;20029;-60
2022/10/13 09:33:15;;;;;;;17.33;4.47;;;;;;;;;;6334789;22;20029;-60
2022/10/13 09:36:09;;;;;;;19.42;4.03;;;;;;;;;;6334410;22;20027;-60
2022/10/13 09:38:45;;;;;;;17.50;4.07;;;;;;;;;;6333038;22;20018;-60
2022/10/13 09:41:15;;;;;;;21.25;4.53;;;;;;;;;;6335348;22;20336;-62
2022/10/13 09:43:45;;;;;;;24.60;4.88;;;;;;;;;;6333379;22;20408;-62
2022/10/13 09:46:18;;;;;;;20.98;4.88;;;;;;;;;;6333713;22;20041;-61
2022/10/13 09:48:48;;;;;;;16.75;4.35;;;;;;;;;;6333181;22;20027;-60
2022/10/13 09:51:34;;;;;;;16.88;3.92;;;;;;;;;;6334576;22;20029;-61
2022/10/13 09:54:01;;;;;;;15.52;4.30;;;;;;;;;;6333381;22;20089;-60
2022/10/13 09:56:43;;;;;;;15.15;4.10;;;;;;;;;;6333229;22;20049;-60
2022/10/13 09:59:21;;;;;;;22.02;4.00;;;;;;;;;;6332901;22;20022;-60
2022/10/13 10:01:55;;;;;;;15.55;3.72;;;;;;;;;;6332253;22;20015;-60
2022/10/13 10:04:25;;;;;;;28.38;4.50;;;;;;;;;;6332398;22;20019;-60
2022/10/13 10:06:58;;;;;;;18.92;4.47;;;;;;;;;;6332420;22;20476;-60
2022/10/13 10:09:47;;;;;;;18.60;3.75;;;;;;;;;;6332768;22;20026;-60
2022/10/13 10:12:22;;;;;;;22.10;4.13;;;;;;;;;;6307043;22;20383;-60
2022/10/13 10:14:54;;;;;;;17.30;3.63;;;;;;;;;;6332725;22;20045;-60
2022/10/13 10:17:32;;;;;;;27.92;4.57;;;;;;;;;;6332258;22;20022;-60
2022/10/13 10:20:18;;;;;;;15.52;3.90;;;;;;;;;;6333749;22;20018;-60
2022/10/13 10:23:00;;;;;;;16.92;4.00;;;;;;;;;;6332685;22;20106;-62
2022/10/13 10:25:37;;;;;;;19.33;4.03;;;;;;;;;;6333090;22;20341;-62
2022/10/13 10:28:43;;;;;;;20.33;4.30;;;;;;;;;;6331790;22;20022;-61
2022/10/13 10:31:22;;;;;;;24.42;4.32;;;;;;;;;;6333055;22;20026;-61
2022/10/13 10:34:02;;;;;;;18.23;4.40;;;;;;;;;;6332293;22;20344;-62
2022/10/13 10:36:48;;;;;;;17.20;3.80;;;;;;;;;;6332825;22;20023;-61
2022/10/13 10:39:38;;;;;;;20.92;4.18;;;;;;;;;;6332381;22;20015;-51
2022/10/13 10:42:16;;;;;;;18.08;4.47;;;;;;;;;;6333386;22;20351;-60
2022/10/13 10:44:52;;;;;;;17.67;4.10;;;;;;;;;;6331666;22;20022;-60
2022/10/13 10:47:32;;;;;;;18.45;4.38;;;;;;;;;;6332324;22;20101;-60
2022/10/13 10:50:06;;;;;;;17.17;3.88;;;;;;;;;;6332918;22;20352;-60
2022/10/13 10:52:46;;;;;;;18.42;4.28;;;;;;;;;;6332578;22;20014;-60
2022/10/13 10:55:22;;;;;;;16.73;3.83;;;;;;;;;;6331934;22;20027;-60
2022/10/13 10:57:58;;;;;;;19.65;3.45;;;;;;;;;;6332165;22;20566;-62
2022/10/13 11:00:36;;;;;;;21.92;4.05;;;;;;;;;;6331770;22;20029;-51
2022/10/13 11:03:31;;;;;;;19.65;3.85;;;;;;;;;;6332204;22;20399;-48
2022/10/13 11:06:21;;;;;;;18.45;3.97;;;;;;;;;;6333194;22;20049;-52
2022/10/13 11:08:54;;;;;;;23.23;4.22;;;;;;;;;;6331420;22;20456;-49
2022/10/13 11:11:22;;;;;;;14.23;3.40;;;;;;;;;;6333042;22;20041;-54
2022/10/13 11:13:52;;;;;;;26.52;4.05;;;;;;;;;;6331418;22;20033;-50
2022/10/13 11:16:28;;;;;;;22.52;4.30;;;;;;;;;;6332799;22;20090;-62
2022/10/13 11:19:08;;;;;;;16.30;3.75;;;;;;;;;;6332970;22;20025;-60
2022/10/13 11:21:52;;;;;;;19.38;4.15;;;;;;;;;;6332673;22;20097;-60
2022/10/13 11:24:48;;;;;;;14.38;3.60;;;;;;;;;;6331795;22;20464;-60
2022/10/13 11:27:41;;;;;;;16.10;4.20;;;;;;;;;;6313904;22;20463;-60
2022/10/13 11:30:34;;;;;;;18.42;4.65;;;;;;;;;;6333376;22;20090;-61
2022/10/13 11:33:26;;;;;;;15.55;4.00;;;;;;;;;;6331952;22;20026;-60
2022/10/13 11:35:54;;;;;;;12.95;3.60;;;;;;;;;;6332124;22;20023;-52
2022/10/13 11:38:34;;;;;;;21.65;4.38;;;;;;;;;;6332307;22;20041;-51
2022/10/13 11:41:14;;;;;;;18.92;4.28;;;;;;;;;;6332620;22;20015;-52
2022/10/13 11:44:03;;;;;;;20.17;4.28;;;;;;;;;;6330626;22;20490;-52
2022/10/13 11:46:48;;;;;;;19.58;4.18;;;;;;;;;;6332628;22;20029;-48
2022/10/13 11:49:22;;;;;;;14.40;4.03;;;;;;;;;;6331933;22;20033;-51
2022/10/13 11:52:00;;;;;;;12.05;3.47;;;;;;;;;;6331422;22;20018;-50
2022/10/13 11:54:36;;;;;;;17.02;3.58;;;;;;;;;;6331299;22;20102;-62
2022/10/13 11:57:16;;;;;;;19.23;3.97;;;;;;;;;;6332463;22;20021;-62
2022/10/13 11:59:54;;;;;;;19.25;4.13;;;;;;;;;;6331508;22;20109;-60
2022/10/13 12:02:28;;;;;;;17.73;3.65;;;;;;;;;;6332552;22;20029;-61
2022/10/13 12:05:06;;;;;;;21.33;4.30;;;;;;;;;;6330305;22;20486;-60
2022/10/13 12:07:41;;;;;;;16.40;3.90;;;;;;;;;;6332740;22;20098;-60
2022/10/13 12:10:17;;;;;;;16.90;3.63;;;;;;;;;;6332505;22;20025;-60
2022/10/13 12:12:50;;;;;;;14.25;3.72;;;;;;;;;;6331398;22;20033;-60
2022/10/13 12:15:36;;;;;;;15.10;3.47;;;;;;;;;;6331880;22;20018;-52
2022/10/13 12:18:25;;;;;;;15.95;4.00;;;;;;;;;;6333609;22;20415;-62
2022/10/13 12:20:57;;;;;;;22.13;4.28;;;;;;;;;;6333039;22;20117;-62
2022/10/13 12:23:31;;;;;;;14.07;4.30;;;;;;;;;;6331094;22;20398;-62
2022/10/13 12:25:59;;;;;;;21.42;5.03;;;;;;;;;;6333191;22;20023;-62
2022/10/13 12:28:26;;;;;;;;;;;;;;;;;;6330917;22;20023;-61
2022/10/13 12:31:00;;;;;;;22.67;5.22;;;;;;;;;;6332895;22;19918;-61
2022/10/13 12:33:30;;;;;;;19.33;5.00;;;;;;;;;;6331707;22;20025;-61
2022/10/13 12:36:20;;;;;;;20.90;4.40;;;;;;;;;;6332686;22;20094;-60
2022/10/13 12:38:51;;;;;;;11.75;3.88;;;;;;;;;;6331509;22;20509;-60
2022/10/13 12:41:45;;;;;;;15.43;4.45;;;;;;;;;;6332321;22;20460;-60
2022/10/13 12:44:23;;;;;;;16.17;4.47;;;;;;;;;;6332061;22;20352;-60
2022/10/13 12:46:58;;;;;;;17.48;4.65;;;;;;;;;;6333278;22;20033;-61
2022/10/13 12:49:26;;;;;;;20.77;4.85;;;;;;;;;;6331224;22;20537;-60
2022/10/13 12:51:55;;;;;;;18.55;4.53;;;;;;;;;;6333684;22;20098;-60
2022/10/13 12:54:34;;;;;;;15.57;4.18;;;;;;;;;;6331546;22;20090;-50
2022/10/13 12:57:17;;;;;;;16.20;4.97;;;;;;;;;;6331524;22;20547;-60
2022/10/13 12:59:50;;;;;;;19.95;5.20;;;;;;;;;;6331748;22;20019;-61
2022/10/13 13:02:25;;;;;;;18.42;5.10;;;;;;;;;;6332035;22;20033;-60
2022/10/13 13:04:59;;;;;;;23.15;5.47;;;;;;;;;;6332614;22;20022;-60
2022/10/13 13:07:30;;;;;;;25.10;6.32;;;;;;;;;;6333928;22;20356;-60
2022/10/13 13:10:06;;;;;;;15.25;5.78;;;;;;;;;;6333483;22;20023;-61
2022/10/13 13:12:34;;;;;;;16.92;5.50;;;;;;;;;;6333903;22;20097;-59
2022/10/13 13:15:21;;;;;;;19.80;6.20;;;;;;;;;;6333095;22;20065;-61
2022/10/13 13:17:48;;;;;;;22.73;6.07;;;;;;;;;;6334296;22;20054;-61
2022/10/13 13:20:32;;;;;;;17.60;5.72;;;;;;;;;;6334047;22;20065;-61
2022/10/13 13:22:59;;;;;;;19.88;5.60;;;;;;;;;;6332915;22;20027;-61
2022/10/13 13:25:33;;;;;;;17.77;5.63;;;;;;;;;;6333608;22;20019;-61
2022/10/13 13:28:16;;;;;;;21.15;4.88;;;;;;;;;;6330489;22;20023;-60
2022/10/13 13:30:50;;;;;;;20.98;4.82;;;;;;;;;;6306511;22;20027;-59
2022/10/13 13:33:18;;;;;;;22.58;5.13;;;;;;;;;;6332992;22;20076;-59
2022/10/13 13:35:47;;;;;;;22.35;6.35;;;;;;;;;;6332750;22;20025;-59
2022/10/13 13:38:21;;;;;;;20.25;5.95;;;;;;;;;;6333493;22;20022;-59
2022/10/13 13:40:48;;;;;;;25.23;5.47;;;;;;;;;;6333339;22;20023;-59
2022/10/13 13:43:29;;;;;;;20.27;6.03;;;;;;;;;;6334166;22;20022;-59
2022/10/13 13:45:56;;;;;;;20.60;4.93;;;;;;;;;;6333602;22;20098;-59
2022/10/13 13:48:30;;;;;;;17.15;5.38;;;;;;;;;;6333764;22;20033;-61
2022/10/13 13:50:57;;;;;;;17.98;5.47;;;;;;;;;;6334433;22;20019;-51
2022/10/13 13:53:24;;;;;;;23.73;5.10;;;;;;;;;;6333598;22;20023;-60
2022/10/13 13:55:57;;;;;;;30.15;6.93;;;;;;;;;;6333373;22;20025;-60
2022/10/13 13:58:24;;;;;;;33.00;7.60;;;;;;;;;;6334347;22;20023;-60
2022/10/13 14:00:59;;;;;;;23.70;6.60;;;;;;;;;;6333314;22;20457;-61
2022/10/13 14:03:26;;;;;;;24.40;7.30;;;;;;;;;;6332205;22;20018;-61
2022/10/13 14:05:53;;;;;;;20.90;6.20;;;;;;;;;;6331990;22;20046;-61
2022/10/13 14:08:31;;;;;;;21.85;6.47;;;;;;;;;;6332070;22;20525;-51
2022/10/13 14:10:58;;;;;;;25.27;6.47;;;;;;;;;;6333502;22;20030;-50
2022/10/13 14:13:33;;;;;;;18.25;5.35;;;;;;;;;;6333051;22;20018;-51
2022/10/13 14:16:00;;;;;;;18.10;5.38;;;;;;;;;;6332765;22;20026;-48
2022/10/13 14:18:28;;;;;;;24.02;5.18;;;;;;;;;;6304920;22;20015;-51
2022/10/13 14:21:06;;;;;;;20.40;5.30;;;;;;;;;;6332636;22;20029;-48
2022/10/13 14:23:33;;;;;;;21.02;4.63;;;;;;;;;;6333526;22;20018;-50
2022/10/13 14:26:08;;;;;;;19.23;5.20;;;;;;;;;;6330453;22;20286;-47
2022/10/13 14:28:42;;;;;;;34.25;13.02;;;;;;;;;;6330262;22;20023;-50
2022/10/13 14:31:16;;;;;;;28.42;8.07;;;;;;;;;;6333347;22;20023;-60
2022/10/13 14:33:43;;;;;;;19.15;7.35;;;;;;;;;;6331880;22;20019;-60
2022/10/13 14:36:10;;;;;;;24.95;5.88;;;;;;;;;;6333541;22;20141;-59
2022/10/13 14:38:45;;;;;;;26.58;9.55;;;;;;;;;;6333212;22;20110;-60
2022/10/13 14:41:12;;;;;;;21.90;6.80;;;;;;;;;;6332873;22;20023;-60
2022/10/13 14:43:39;;;;;;;32.13;6.20;;;;;;;;;;6332737;22;20014;-60
2022/10/13 14:46:13;;;;;;;19.30;5.22;;;;;;;;;;6332491;22;20019;-59
2022/10/13 14:48:40;;;;;;;31.27;5.32;;;;;;;;;;6331545;22;20019;-59
2022/10/13 15:43:56;;;;;;;21.80;6.25;;;;;;;;;;6310469;22;20026;-61
2022/10/13 15:46:30;;;;;;;29.45;6.35;;;;;;;;;;6329597;22;20019;-58
2022/10/13 15:48:58;;;;;;;16.20;5.75;;;;;;;;;;6327891;22;20293;-58
2022/10/13 15:51:26;;;;;;;19.83;5.68;;;;;;;;;;6301032;22;20072;-58
2022/10/13 15:54:00;;;;;;;21.90;5.90;;;;;;;;;;6329216;22;20072;-58
2022/10/13 15:56:27;;;;;;;21.70;5.25;;;;;;;;;;6324465;22;20019;-58
2022/10/13 15:59:00;;;;;;;28.98;6.85;;;;;;;;;;6327359;22;20018;-57
2022/10/13 16:01:28;;;;;;;30.23;9.98;;;;;;;;;;6326089;22;20019;-51
2022/10/13 16:03:55;;;;;;;28.83;8.30;;;;;;;;;;6328438;22;20426;-60